Impacts TAF Board INFO
FOR SITUATIONAL AWARENESS. NOT TO BE USED FOR FLIGHT PLANNING PURPOSES.
IDs:

KLAX - Los Angeles Intl, CA, US

Issued at 0546 UTC 12 Dec 2017
Updated at 0641 UTC 12 Dec 2017
Potential Impact None Slight Moderate High
Time0553Z 12/07Z 12/08Z 12/09Z 12/10Z 12/11Z 12/12Z 12/13Z 12/14Z 12/15Z 12/16Z 12/17Z 12/18Z 12/19Z>>
Type OBS PRVL PRVL PRVL PRVL PRVL PRVL PRVL PRVL PRVL PRVL PRVL PRVL PRVL
VIS 10 >6 >6 >6 >6 >6 >6 >6 >6 >6 >6 >6 >6 >6
CIG -- -- -- -- -- -- -- -- -- -- -- -- -- --
Cover FEW SKC SKC SKC SKC SKC SKC SKC SKC SKC SKC SKC SKC SKC
FltCat VFR VFR VFR VFR VFR VFR VFR VFR VFR VFR VFR VFR VFR VFR
WX -- -- -- -- -- -- -- -- -- -- -- -- -- --
WDir VRB VRB VRB VRB VRB VRB VRB VRB 60 60 60 VRB VRB VRB
WSpd 0 3 3 3 3 3 3 3 6 6 6 3 3 3
WGst -- -- -- -- -- -- -- -- -- -- -- -- -- --

Raw TAF
KLAX 120546Z 1206/1312 VRB03KT P6SM SKC
  FM121400 06006KT P6SM SKC
  FM121700 VRB03KT P6SM SKC
  FM122100 27007KT P6SM SKC
  FM130400 VRB03KT P6SM SKC


Raw METAR
KLAX 120553Z 00000KT 10SM FEW200 18/M02 A3019 RMK AO2 SLP220 T01781022 10228 20150 51003
KLAX 120453Z 00000KT 10SM FEW200 15/05 A3019 RMK AO2 SLP221 T01500050
KLAX 120353Z 00000KT 10SM FEW200 17/05 A3019 RMK AO2 SLP220 T01670050

METAR Board
Radar Display
Forecast Discussion

FOR SITUATIONAL AWARENESS. NOT TO BE USED FOR FLIGHT PLANNING PURPOSES.